Allen, Kentucky
Current Conditions -  °F | °C
As of 8:55 AM on Wednesday 28 Jan 2015 (Local Time) from KPBX Reporting Station
Light Snow Light Snow  
Wind Chill: 19°   Ceiling: 1600
Heat Index: 19°   Visibility: 2mi
Dew Point: 15°   Wind: 0mph
Humidity: 86%   Direction: NA
Pressure: 30.33"   Gusts: NA
Location:  37.61°N, 82.73°W
Report Text: KPBX 281355Z AUTO 00000KT 2SM -SN OVC016 M07/M09 A3033 RMK AO2 T10731093
Loading
Personal Weather Stations






























Interactive Weather Map New forecast layout! Learn more

10-Day Weather Forecast

Advertisements
Track Severe Weather on mobile